aviador You're here:

KLOR Decoded Metar

LOWE AHP/FT. RUC in AL, USA
Report Time2017-09-26 02:58:00
UTC Time2017-09-26 03:43:44
Flight Rules vfr VFR
WindCalm
Visibility9999 m
Phenomena:N/A
Clouds:N/A
Expected CloudBase > 400 ft AGL from Temp-Dew spread
CeilingNone
Temp22°C (ISA +7)
Dew Point21°C (94% RH)
QNH1013 hPa
Density Alt1,444 ft
Elevation243 ft
Report Wrong Elevation
Raw Report
KLOR 260258Z AUTO 00000KT 10SM CLR 22/21 A2991 RMK AO2 SLP110
T02200213 52013=

Extra information for KLOR:More info

Metar Taf Metar & Taf Last 4 Metars F.Rules Stats Wind Profile Meteogram Temp Stats Airport Information Weather charts Add Link Nearby VenuesMetar ALERT Operation Metar Decoded Social comments

AIRNAV info for KLOR